sensor_id;sensor_type;location;lat;lon;timestamp;temperature;humidity
19970;DHT22;10146;47.754;9.566;2022-08-14T00:00:29;16.50;99.90
19970;DHT22;10146;47.754;9.566;2022-08-14T00:02:54;16.60;99.90
19970;DHT22;10146;47.754;9.566;2022-08-14T00:05:21;16.40;99.90
19970;DHT22;10146;47.754;9.566;2022-08-14T00:07:48;16.40;99.90
19970;DHT22;10146;47.754;9.566;2022-08-14T00:10:17;16.40;99.90
19970;DHT22;10146;47.754;9.566;2022-08-14T00:12:53;16.40;99.90
19970;DHT22;10146;47.754;9.566;2022-08-14T00:15:29;16.30;99.90
19970;DHT22;10146;47.754;9.566;2022-08-14T00:17:55;16.30;99.90
19970;DHT22;10146;47.754;9.566;2022-08-14T00:20:24;16.20;99.90
19970;DHT22;10146;47.754;9.566;2022-08-14T00:22:51;16.10;99.90
19970;DHT22;10146;47.754;9.566;2022-08-14T00:25:17;16.10;99.90
19970;DHT22;10146;47.754;9.566;2022-08-14T00:27:43;16.20;99.90
19970;DHT22;10146;47.754;9.566;2022-08-14T00:30:11;16.20;99.90
19970;DHT22;10146;47.754;9.566;2022-08-14T00:32:37;16.10;99.90
19970;DHT22;10146;47.754;9.566;2022-08-14T00:35:05;16.00;99.90
19970;DHT22;10146;47.754;9.566;2022-08-14T00:37:31;16.00;99.90
19970;DHT22;10146;47.754;9.566;2022-08-14T00:39:57;15.90;99.90
19970;DHT22;10146;47.754;9.566;2022-08-14T00:42:24;16.00;99.90
19970;DHT22;10146;47.754;9.566;2022-08-14T00:44:50;15.90;99.90
19970;DHT22;10146;47.754;9.566;2022-08-14T00:47:17;15.90;99.90
19970;DHT22;10146;47.754;9.566;2022-08-14T00:49:44;15.90;99.90
19970;DHT22;10146;47.754;9.566;2022-08-14T00:52:11;15.90;99.90
19970;DHT22;10146;47.754;9.566;2022-08-14T00:54:38;15.80;99.90
19970;DHT22;10146;47.754;9.566;2022-08-14T00:57:04;15.80;99.90
19970;DHT22;10146;47.754;9.566;2022-08-14T00:59:30;15.70;99.90
19970;DHT22;10146;47.754;9.566;2022-08-14T01:01:58;15.60;99.90
19970;DHT22;10146;47.754;9.566;2022-08-14T01:04:25;15.70;99.90
19970;DHT22;10146;47.754;9.566;2022-08-14T01:06:51;15.80;99.90
19970;DHT22;10146;47.754;9.566;2022-08-14T01:09:18;15.70;99.90
19970;DHT22;10146;47.754;9.566;2022-08-14T01:11:50;15.70;99.90
19970;DHT22;10146;47.754;9.566;2022-08-14T01:14:17;15.60;99.90
19970;DHT22;10146;47.754;9.566;2022-08-14T01:16:44;15.70;99.90
19970;DHT22;10146;47.754;9.566;2022-08-14T01:19:10;15.60;99.90
19970;DHT22;10146;47.754;9.566;2022-08-14T01:21:54;15.40;99.90
19970;DHT22;10146;47.754;9.566;2022-08-14T01:24:21;15.40;99.90
19970;DHT22;10146;47.754;9.566;2022-08-14T01:26:47;15.20;99.90
19970;DHT22;10146;47.754;9.566;2022-08-14T01:29:13;15.10;99.90
19970;DHT22;10146;47.754;9.566;2022-08-14T01:31:40;15.00;99.90
19970;DHT22;10146;47.754;9.566;2022-08-14T01:34:14;14.90;99.90
19970;DHT22;10146;47.754;9.566;2022-08-14T01:36:40;15.00;99.90
19970;DHT22;10146;47.754;9.566;2022-08-14T01:39:08;15.00;99.90
19970;DHT22;10146;47.754;9.566;2022-08-14T01:41:35;14.90;99.90
19970;DHT22;10146;47.754;9.566;2022-08-14T01:44:05;15.00;99.90
19970;DHT22;10146;47.754;9.566;2022-08-14T01:46:34;15.00;99.90
19970;DHT22;10146;47.754;9.566;2022-08-14T01:49:01;15.10;99.90
19970;DHT22;10146;47.754;9.566;2022-08-14T01:51:29;15.00;99.90
19970;DHT22;10146;47.754;9.566;2022-08-14T01:53:58;14.90;99.90
19970;DHT22;10146;47.754;9.566;2022-08-14T01:56:28;15.00;99.90
19970;DHT22;10146;47.754;9.566;2022-08-14T01:59:17;14.90;99.90
19970;DHT22;10146;47.754;9.566;2022-08-14T02:01:47;14.90;99.90
19970;DHT22;10146;47.754;9.566;2022-08-14T02:04:15;14.90;99.90
19970;DHT22;10146;47.754;9.566;2022-08-14T02:06:41;14.90;99.90
19970;DHT22;10146;47.754;9.566;2022-08-14T02:09:08;14.90;99.90
19970;DHT22;10146;47.754;9.566;2022-08-14T02:11:34;14.90;99.90
19970;DHT22;10146;47.754;9.566;2022-08-14T02:14:03;14.80;99.90
19970;DHT22;10146;47.754;9.566;2022-08-14T02:16:33;14.80;99.90
19970;DHT22;10146;47.754;9.566;2022-08-14T02:19:03;14.70;99.90
19970;DHT22;10146;47.754;9.566;2022-08-14T02:21:30;14.80;99.90
19970;DHT22;10146;47.754;9.566;2022-08-14T02:23:59;14.80;99.90
19970;DHT22;10146;47.754;9.566;2022-08-14T02:26:29;14.60;99.90
19970;DHT22;10146;47.754;9.566;2022-08-14T02:28:59;14.60;99.90
19970;DHT22;10146;47.754;9.566;2022-08-14T02:31:27;14.70;99.90
19970;DHT22;10146;47.754;9.566;2022-08-14T02:34:31;14.60;99.90
19970;DHT22;10146;47.754;9.566;2022-08-14T02:36:52;14.50;99.90
19970;DHT22;10146;47.754;9.566;2022-08-14T02:39:19;14.50;99.90
19970;DHT22;10146;47.754;9.566;2022-08-14T02:41:45;14.50;99.90
19970;DHT22;10146;47.754;9.566;2022-08-14T02:44:17;14.50;99.90
19970;DHT22;10146;47.754;9.566;2022-08-14T02:46:52;14.50;99.90
19970;DHT22;10146;47.754;9.566;2022-08-14T02:49:18;14.40;99.90
19970;DHT22;10146;47.754;9.566;2022-08-14T02:51:52;14.40;99.90
19970;DHT22;10146;47.754;9.566;2022-08-14T02:54:19;14.30;99.90
19970;DHT22;10146;47.754;9.566;2022-08-14T02:56:46;14.30;99.90
19970;DHT22;10146;47.754;9.566;2022-08-14T02:59:11;14.30;99.90
19970;DHT22;10146;47.754;9.566;2022-08-14T03:01:38;14.30;99.90
19970;DHT22;10146;47.754;9.566;2022-08-14T03:04:05;14.20;99.90
19970;DHT22;10146;47.754;9.566;2022-08-14T03:06:34;14.20;99.90
19970;DHT22;10146;47.754;9.566;2022-08-14T03:08:59;14.10;99.90
19970;DHT22;10146;47.754;9.566;2022-08-14T03:11:25;14.20;99.90
19970;DHT22;10146;47.754;9.566;2022-08-14T03:13:51;14.10;99.90
19970;DHT22;10146;47.754;9.566;2022-08-14T03:16:22;14.10;99.90
19970;DHT22;10146;47.754;9.566;2022-08-14T03:18:50;14.10;99.90
19970;DHT22;10146;47.754;9.566;2022-08-14T03:21:18;14.10;99.90
19970;DHT22;10146;47.754;9.566;2022-08-14T03:23:46;14.20;99.90
19970;DHT22;10146;47.754;9.566;2022-08-14T03:26:15;14.10;99.90
19970;DHT22;10146;47.754;9.566;2022-08-14T03:28:43;14.20;99.90
19970;DHT22;10146;47.754;9.566;2022-08-14T03:31:09;14.20;99.90
19970;DHT22;10146;47.754;9.566;2022-08-14T03:33:36;14.20;99.90
19970;DHT22;10146;47.754;9.566;2022-08-14T03:36:10;14.10;99.90
19970;DHT22;10146;47.754;9.566;2022-08-14T03:38:43;14.10;99.90
19970;DHT22;10146;47.754;9.566;2022-08-14T03:41:16;14.10;99.90
19970;DHT22;10146;47.754;9.566;2022-08-14T03:43:46;14.20;99.90
19970;DHT22;10146;47.754;9.566;2022-08-14T03:46:13;14.10;99.90
19970;DHT22;10146;47.754;9.566;2022-08-14T03:48:40;14.00;99.90
19970;DHT22;10146;47.754;9.566;2022-08-14T03:51:08;13.90;99.90
19970;DHT22;10146;47.754;9.566;2022-08-14T03:53:37;13.90;99.90
19970;DHT22;10146;47.754;9.566;2022-08-14T03:56:04;13.80;99.90
19970;DHT22;10146;47.754;9.566;2022-08-14T03:58:30;13.80;99.90
19970;DHT22;10146;47.754;9.566;2022-08-14T04:00:59;13.80;99.90
19970;DHT22;10146;47.754;9.566;2022-08-14T04:03:27;13.80;99.90
19970;DHT22;10146;47.754;9.566;2022-08-14T04:05:53;13.80;99.90
19970;DHT22;10146;47.754;9.566;2022-08-14T04:08:19;13.80;99.90
19970;DHT22;10146;47.754;9.566;2022-08-14T04:10:46;13.90;99.90
19970;DHT22;10146;47.754;9.566;2022-08-14T04:13:12;13.80;99.90
19970;DHT22;10146;47.754;9.566;2022-08-14T04:15:46;13.80;99.90
19970;DHT22;10146;47.754;9.566;2022-08-14T04:18:12;13.80;99.90
19970;DHT22;10146;47.754;9.566;2022-08-14T04:20:40;13.80;99.90
19970;DHT22;10146;47.754;9.566;2022-08-14T04:23:08;13.80;99.90
19970;DHT22;10146;47.754;9.566;2022-08-14T04:25:35;13.70;99.90
19970;DHT22;10146;47.754;9.566;2022-08-14T04:28:02;13.60;99.90
19970;DHT22;10146;47.754;9.566;2022-08-14T04:30:28;13.70;99.90
19970;DHT22;10146;47.754;9.566;2022-08-14T04:32:55;13.70;99.90
19970;DHT22;10146;47.754;9.566;2022-08-14T04:35:21;13.60;99.90
19970;DHT22;10146;47.754;9.566;2022-08-14T04:37:46;13.70;99.90
19970;DHT22;10146;47.754;9.566;2022-08-14T04:40:30;13.70;99.90
19970;DHT22;10146;47.754;9.566;2022-08-14T04:43:14;13.60;99.90
19970;DHT22;10146;47.754;9.566;2022-08-14T04:45:58;13.70;99.90
19970;DHT22;10146;47.754;9.566;2022-08-14T04:48:26;13.80;99.90
19970;DHT22;10146;47.754;9.566;2022-08-14T04:50:52;13.90;99.90
19970;DHT22;10146;47.754;9.566;2022-08-14T04:53:21;14.00;99.90
19970;DHT22;10146;47.754;9.566;2022-08-14T04:55:49;14.00;99.90
19970;DHT22;10146;47.754;9.566;2022-08-14T04:58:18;14.10;99.90
19970;DHT22;10146;47.754;9.566;2022-08-14T05:00:45;14.10;99.90
19970;DHT22;10146;47.754;9.566;2022-08-14T05:03:16;14.10;99.90
19970;DHT22;10146;47.754;9.566;2022-08-14T05:05:41;14.20;99.90
19970;DHT22;10146;47.754;9.566;2022-08-14T05:08:10;14.20;99.90
19970;DHT22;10146;47.754;9.566;2022-08-14T05:10:47;14.40;99.90
19970;DHT22;10146;47.754;9.566;2022-08-14T05:13:21;14.50;99.90
19970;DHT22;10146;47.754;9.566;2022-08-14T05:15:47;14.50;99.90
19970;DHT22;10146;47.754;9.566;2022-08-14T05:18:16;14.70;99.90
19970;DHT22;10146;47.754;9.566;2022-08-14T05:20:43;14.60;99.90
19970;DHT22;10146;47.754;9.566;2022-08-14T05:23:14;14.70;99.90
19970;DHT22;10146;47.754;9.566;2022-08-14T05:25:41;14.70;99.90
19970;DHT22;10146;47.754;9.566;2022-08-14T05:28:10;14.70;99.90
19970;DHT22;10146;47.754;9.566;2022-08-14T05:30:37;14.70;99.90
19970;DHT22;10146;47.754;9.566;2022-08-14T05:33:04;14.80;99.90
19970;DHT22;10146;47.754;9.566;2022-08-14T05:35:30;14.90;99.90
19970;DHT22;10146;47.754;9.566;2022-08-14T05:37:58;14.90;99.90
19970;DHT22;10146;47.754;9.566;2022-08-14T05:40:24;14.90;99.90
19970;DHT22;10146;47.754;9.566;2022-08-14T05:42:50;14.90;99.90
19970;DHT22;10146;47.754;9.566;2022-08-14T05:45:15;14.80;99.90
19970;DHT22;10146;47.754;9.566;2022-08-14T05:47:42;14.80;99.90
19970;DHT22;10146;47.754;9.566;2022-08-14T05:50:10;14.80;99.90
19970;DHT22;10146;47.754;9.566;2022-08-14T05:52:36;14.80;99.90
19970;DHT22;10146;47.754;9.566;2022-08-14T05:55:02;14.80;99.90
19970;DHT22;10146;47.754;9.566;2022-08-14T05:57:28;14.90;99.90
19970;DHT22;10146;47.754;9.566;2022-08-14T05:59:54;14.90;99.90
19970;DHT22;10146;47.754;9.566;2022-08-14T06:02:20;15.00;99.90
19970;DHT22;10146;47.754;9.566;2022-08-14T06:04:45;15.00;99.90
19970;DHT22;10146;47.754;9.566;2022-08-14T06:07:13;15.00;99.90
19970;DHT22;10146;47.754;9.566;2022-08-14T06:09:39;15.10;99.90
19970;DHT22;10146;47.754;9.566;2022-08-14T06:12:06;15.10;99.90
19970;DHT22;10146;47.754;9.566;2022-08-14T06:14:31;15.20;99.90
19970;DHT22;10146;47.754;9.566;2022-08-14T06:16:58;15.30;99.90
19970;DHT22;10146;47.754;9.566;2022-08-14T06:19:23;15.40;99.90
19970;DHT22;10146;47.754;9.566;2022-08-14T06:21:50;15.50;99.90
19970;DHT22;10146;47.754;9.566;2022-08-14T06:24:15;15.60;99.90
19970;DHT22;10146;47.754;9.566;2022-08-14T06:26:41;15.80;99.90
19970;DHT22;10146;47.754;9.566;2022-08-14T06:29:07;16.00;99.90
19970;DHT22;10146;47.754;9.566;2022-08-14T06:31:34;16.10;99.90
19970;DHT22;10146;47.754;9.566;2022-08-14T06:34:00;16.30;99.90
19970;DHT22;10146;47.754;9.566;2022-08-14T06:36:25;16.50;99.90
19970;DHT22;10146;47.754;9.566;2022-08-14T06:38:52;16.50;99.90
19970;DHT22;10146;47.754;9.566;2022-08-14T06:41:17;16.70;99.90
19970;DHT22;10146;47.754;9.566;2022-08-14T06:43:43;16.80;99.90
19970;DHT22;10146;47.754;9.566;2022-08-14T06:46:09;16.90;99.90
19970;DHT22;10146;47.754;9.566;2022-08-14T06:48:34;17.10;99.90
19970;DHT22;10146;47.754;9.566;2022-08-14T06:51:00;17.20;99.90
19970;DHT22;10146;47.754;9.566;2022-08-14T06:53:26;17.30;99.90
19970;DHT22;10146;47.754;9.566;2022-08-14T06:55:51;17.40;99.90
19970;DHT22;10146;47.754;9.566;2022-08-14T06:58:18;17.50;99.90
19970;DHT22;10146;47.754;9.566;2022-08-14T07:00:44;17.60;99.90
19970;DHT22;10146;47.754;9.566;2022-08-14T07:03:29;17.70;99.90
19970;DHT22;10146;47.754;9.566;2022-08-14T07:06:15;17.90;99.90
19970;DHT22;10146;47.754;9.566;2022-08-14T07:08:41;18.00;99.90
19970;DHT22;10146;47.754;9.566;2022-08-14T07:11:08;18.10;99.90
19970;DHT22;10146;47.754;9.566;2022-08-14T07:13:34;18.30;99.90
19970;DHT22;10146;47.754;9.566;2022-08-14T07:16:01;18.40;99.90
19970;DHT22;10146;47.754;9.566;2022-08-14T07:18:32;18.50;99.90
19970;DHT22;10146;47.754;9.566;2022-08-14T07:20:59;18.60;99.90
19970;DHT22;10146;47.754;9.566;2022-08-14T07:23:25;18.80;99.90
19970;DHT22;10146;47.754;9.566;2022-08-14T07:25:54;18.90;99.90
19970;DHT22;10146;47.754;9.566;2022-08-14T07:28:26;19.10;99.90
19970;DHT22;10146;47.754;9.566;2022-08-14T07:30:54;19.20;99.90
19970;DHT22;10146;47.754;9.566;2022-08-14T07:33:26;19.30;99.90
19970;DHT22;10146;47.754;9.566;2022-08-14T07:35:53;19.40;99.90
19970;DHT22;10146;47.754;9.566;2022-08-14T07:38:20;19.50;99.90
19970;DHT22;10146;47.754;9.566;2022-08-14T07:40:47;19.60;99.90
19970;DHT22;10146;47.754;9.566;2022-08-14T07:43:13;19.80;99.90
19970;DHT22;10146;47.754;9.566;2022-08-14T07:45:39;19.90;99.90
19970;DHT22;10146;47.754;9.566;2022-08-14T07:48:06;20.00;99.90
19970;DHT22;10146;47.754;9.566;2022-08-14T07:50:32;20.00;99.90
19970;DHT22;10146;47.754;9.566;2022-08-14T07:52:58;20.00;99.90
19970;DHT22;10146;47.754;9.566;2022-08-14T07:55:24;20.00;99.90
19970;DHT22;10146;47.754;9.566;2022-08-14T07:57:50;20.00;99.90
19970;DHT22;10146;47.754;9.566;2022-08-14T08:00:19;20.10;99.90
19970;DHT22;10146;47.754;9.566;2022-08-14T08:02:48;20.20;99.90
19970;DHT22;10146;47.754;9.566;2022-08-14T08:05:16;20.40;99.90
19970;DHT22;10146;47.754;9.566;2022-08-14T08:07:43;20.50;99.90
19970;DHT22;10146;47.754;9.566;2022-08-14T08:10:17;20.60;99.90
19970;DHT22;10146;47.754;9.566;2022-08-14T08:13:16;20.70;99.90
19970;DHT22;10146;47.754;9.566;2022-08-14T08:15:52;20.80;99.90
19970;DHT22;10146;47.754;9.566;2022-08-14T08:18:19;20.90;99.10
19970;DHT22;10146;47.754;9.566;2022-08-14T08:20:47;20.90;98.50
19970;DHT22;10146;47.754;9.566;2022-08-14T08:23:15;20.90;98.30
19970;DHT22;10146;47.754;9.566;2022-08-14T08:25:43;20.90;98.30
19970;DHT22;10146;47.754;9.566;2022-08-14T08:28:28;20.80;98.10
19970;DHT22;10146;47.754;9.566;2022-08-14T08:31:00;20.90;98.00
19970;DHT22;10146;47.754;9.566;2022-08-14T08:33:28;20.80;97.50
19970;DHT22;10146;47.754;9.566;2022-08-14T08:36:02;20.80;97.10
19970;DHT22;10146;47.754;9.566;2022-08-14T08:38:29;20.80;97.30
19970;DHT22;10146;47.754;9.566;2022-08-14T08:40:57;20.70;97.20
19970;DHT22;10146;47.754;9.566;2022-08-14T08:43:31;20.80;97.40
19970;DHT22;10146;47.754;9.566;2022-08-14T08:46:06;20.90;97.50
19970;DHT22;10146;47.754;9.566;2022-08-14T08:48:45;21.00;97.40
19970;DHT22;10146;47.754;9.566;2022-08-14T08:56:45;21.50;95.10
19970;DHT22;10146;47.754;9.566;2022-08-14T08:59:23;21.60;95.50
19970;DHT22;10146;47.754;9.566;2022-08-14T09:01:54;21.80;95.40
19970;DHT22;10146;47.754;9.566;2022-08-14T09:04:24;21.80;94.70
19970;DHT22;10146;47.754;9.566;2022-08-14T09:06:50;21.80;94.70
19970;DHT22;10146;47.754;9.566;2022-08-14T09:11:43;22.00;94.60
19970;DHT22;10146;47.754;9.566;2022-08-14T09:14:09;22.10;94.20
19970;DHT22;10146;47.754;9.566;2022-08-14T09:16:35;22.30;93.50
19970;DHT22;10146;47.754;9.566;2022-08-14T09:19:01;22.40;94.00
19970;DHT22;10146;47.754;9.566;2022-08-14T09:21:27;22.60;93.40
19970;DHT22;10146;47.754;9.566;2022-08-14T09:23:54;22.80;92.50
19970;DHT22;10146;47.754;9.566;2022-08-14T09:26:19;22.80;91.10
19970;DHT22;10146;47.754;9.566;2022-08-14T09:28:45;22.80;91.20
19970;DHT22;10146;47.754;9.566;2022-08-14T09:31:12;22.90;92.30
19970;DHT22;10146;47.754;9.566;2022-08-14T09:36:28;23.20;90.50
19970;DHT22;10146;47.754;9.566;2022-08-14T09:39:19;23.40;88.20
19970;DHT22;10146;47.754;9.566;2022-08-14T09:45:11;23.70;87.60
19970;DHT22;10146;47.754;9.566;2022-08-14T09:47:54;23.90;87.60
19970;DHT22;10146;47.754;9.566;2022-08-14T09:52:55;24.10;84.20
19970;DHT22;10146;47.754;9.566;2022-08-14T09:55:22;24.10;86.10
19970;DHT22;10146;47.754;9.566;2022-08-14T09:57:49;24.30;87.50
19970;DHT22;10146;47.754;9.566;2022-08-14T10:00:15;24.50;84.30
19970;DHT22;10146;47.754;9.566;2022-08-14T10:02:54;24.60;84.30
19970;DHT22;10146;47.754;9.566;2022-08-14T10:05:30;24.70;84.00
19970;DHT22;10146;47.754;9.566;2022-08-14T10:07:58;24.70;83.60
19970;DHT22;10146;47.754;9.566;2022-08-14T10:10:33;24.80;81.00
19970;DHT22;10146;47.754;9.566;2022-08-14T10:13:01;24.70;79.50
19970;DHT22;10146;47.754;9.566;2022-08-14T10:15:29;24.80;81.00
19970;DHT22;10146;47.754;9.566;2022-08-14T10:18:13;25.00;79.80
19970;DHT22;10146;47.754;9.566;2022-08-14T10:20:41;25.10;78.70
19970;DHT22;10146;47.754;9.566;2022-08-14T10:23:13;25.20;78.50
19970;DHT22;10146;47.754;9.566;2022-08-14T10:25:46;25.20;78.20
19970;DHT22;10146;47.754;9.566;2022-08-14T10:28:16;25.30;77.30
19970;DHT22;10146;47.754;9.566;2022-08-14T10:30:44;25.30;76.30
19970;DHT22;10146;47.754;9.566;2022-08-14T10:33:31;25.30;76.30
19970;DHT22;10146;47.754;9.566;2022-08-14T10:35:58;25.40;76.00
19970;DHT22;10146;47.754;9.566;2022-08-14T10:38:27;25.60;75.30
19970;DHT22;10146;47.754;9.566;2022-08-14T10:40:53;25.60;74.40
19970;DHT22;10146;47.754;9.566;2022-08-14T10:43:21;25.60;74.60
19970;DHT22;10146;47.754;9.566;2022-08-14T10:45:55;25.80;74.30
19970;DHT22;10146;47.754;9.566;2022-08-14T10:48:23;25.90;73.10
19970;DHT22;10146;47.754;9.566;2022-08-14T10:50:48;26.10;73.20
19970;DHT22;10146;47.754;9.566;2022-08-14T10:53:29;26.10;73.00
19970;DHT22;10146;47.754;9.566;2022-08-14T10:55:58;26.40;72.70
19970;DHT22;10146;47.754;9.566;2022-08-14T10:58:29;26.60;70.80
19970;DHT22;10146;47.754;9.566;2022-08-14T11:00:58;26.60;69.40
19970;DHT22;10146;47.754;9.566;2022-08-14T11:03:39;26.60;68.20
19970;DHT22;10146;47.754;9.566;2022-08-14T11:06:18;26.80;67.40
19970;DHT22;10146;47.754;9.566;2022-08-14T11:08:48;26.90;67.10
19970;DHT22;10146;47.754;9.566;2022-08-14T11:11:14;27.00;67.30
19970;DHT22;10146;47.754;9.566;2022-08-14T11:13:42;27.00;66.60
19970;DHT22;10146;47.754;9.566;2022-08-14T11:16:09;27.00;67.90
19970;DHT22;10146;47.754;9.566;2022-08-14T11:18:36;27.00;65.90
19970;DHT22;10146;47.754;9.566;2022-08-14T11:21:03;27.10;63.90
19970;DHT22;10146;47.754;9.566;2022-08-14T11:23:35;27.10;63.60
19970;DHT22;10146;47.754;9.566;2022-08-14T11:26:02;27.30;63.50
19970;DHT22;10146;47.754;9.566;2022-08-14T11:28:32;27.50;62.50
19970;DHT22;10146;47.754;9.566;2022-08-14T11:30:58;27.70;60.50
19970;DHT22;10146;47.754;9.566;2022-08-14T11:33:27;27.90;60.00
19970;DHT22;10146;47.754;9.566;2022-08-14T11:35:56;28.00;59.10
19970;DHT22;10146;47.754;9.566;2022-08-14T11:38:25;28.00;60.20
19970;DHT22;10146;47.754;9.566;2022-08-14T11:40:55;28.10;59.00
19970;DHT22;10146;47.754;9.566;2022-08-14T11:43:21;28.10;58.90
19970;DHT22;10146;47.754;9.566;2022-08-14T11:45:50;28.30;57.20
19970;DHT22;10146;47.754;9.566;2022-08-14T11:48:20;28.40;56.10
19970;DHT22;10146;47.754;9.566;2022-08-14T11:50:48;28.40;55.70
19970;DHT22;10146;47.754;9.566;2022-08-14T11:53:27;28.30;55.00
19970;DHT22;10146;47.754;9.566;2022-08-14T11:56:00;28.30;55.20
19970;DHT22;10146;47.754;9.566;2022-08-14T11:58:34;28.40;56.00
19970;DHT22;10146;47.754;9.566;2022-08-14T12:01:07;28.60;56.00
19970;DHT22;10146;47.754;9.566;2022-08-14T12:03:43;28.60;53.60
19970;DHT22;10146;47.754;9.566;2022-08-14T12:06:20;28.80;52.90
19970;DHT22;10146;47.754;9.566;2022-08-14T12:08:46;28.90;52.30
19970;DHT22;10146;47.754;9.566;2022-08-14T12:11:14;29.00;51.70
19970;DHT22;10146;47.754;9.566;2022-08-14T12:13:40;28.90;51.30
19970;DHT22;10146;47.754;9.566;2022-08-14T12:16:08;28.60;52.10
19970;DHT22;10146;47.754;9.566;2022-08-14T12:18:38;28.50;52.10
19970;DHT22;10146;47.754;9.566;2022-08-14T12:21:18;28.40;52.90
19970;DHT22;10146;47.754;9.566;2022-08-14T12:23:45;28.50;52.90
19970;DHT22;10146;47.754;9.566;2022-08-14T12:26:17;28.40;52.90
19970;DHT22;10146;47.754;9.566;2022-08-14T12:28:47;28.40;53.20
19970;DHT22;10146;47.754;9.566;2022-08-14T12:31:16;28.50;53.30
19970;DHT22;10146;47.754;9.566;2022-08-14T12:33:43;28.40;53.30
19970;DHT22;10146;47.754;9.566;2022-08-14T12:36:20;28.50;54.30
19970;DHT22;10146;47.754;9.566;2022-08-14T12:38:46;28.80;53.30
19970;DHT22;10146;47.754;9.566;2022-08-14T12:41:18;28.90;55.20
19970;DHT22;10146;47.754;9.566;2022-08-14T12:43:52;29.00;53.90
19970;DHT22;10146;47.754;9.566;2022-08-14T12:46:47;29.10;52.70
19970;DHT22;10146;47.754;9.566;2022-08-14T12:49:15;29.30;51.80
19970;DHT22;10146;47.754;9.566;2022-08-14T12:51:42;29.20;52.20
19970;DHT22;10146;47.754;9.566;2022-08-14T12:54:16;29.20;53.50
19970;DHT22;10146;47.754;9.566;2022-08-14T12:56:42;29.30;53.50
19970;DHT22;10146;47.754;9.566;2022-08-14T12:59:09;29.40;56.60
19970;DHT22;10146;47.754;9.566;2022-08-14T13:01:35;29.30;55.90
19970;DHT22;10146;47.754;9.566;2022-08-14T13:04:12;29.20;56.10
19970;DHT22;10146;47.754;9.566;2022-08-14T13:06:40;29.20;58.10
19970;DHT22;10146;47.754;9.566;2022-08-14T13:09:08;29.30;58.60
19970;DHT22;10146;47.754;9.566;2022-08-14T13:11:41;29.00;57.50
19970;DHT22;10146;47.754;9.566;2022-08-14T13:14:16;28.90;59.00
19970;DHT22;10146;47.754;9.566;2022-08-14T13:16:43;29.00;58.30
19970;DHT22;10146;47.754;9.566;2022-08-14T13:19:13;29.00;59.20
19970;DHT22;10146;47.754;9.566;2022-08-14T13:21:45;28.90;56.90
19970;DHT22;10146;47.754;9.566;2022-08-14T13:24:12;28.90;55.80
19970;DHT22;10146;47.754;9.566;2022-08-14T13:26:50;28.80;56.00
19970;DHT22;10146;47.754;9.566;2022-08-14T13:29:22;28.90;56.80
19970;DHT22;10146;47.754;9.566;2022-08-14T13:31:49;28.80;55.40
19970;DHT22;10146;47.754;9.566;2022-08-14T13:34:21;28.70;56.90
19970;DHT22;10146;47.754;9.566;2022-08-14T13:36:47;28.70;57.40
19970;DHT22;10146;47.754;9.566;2022-08-14T13:39:18;28.70;57.70
19970;DHT22;10146;47.754;9.566;2022-08-14T13:41:45;28.80;57.20
19970;DHT22;10146;47.754;9.566;2022-08-14T13:44:17;28.70;57.10
19970;DHT22;10146;47.754;9.566;2022-08-14T13:46:47;28.60;57.20
19970;DHT22;10146;47.754;9.566;2022-08-14T13:49:13;28.40;56.90
19970;DHT22;10146;47.754;9.566;2022-08-14T13:51:43;28.30;56.90
19970;DHT22;10146;47.754;9.566;2022-08-14T13:54:19;28.30;58.30
19970;DHT22;10146;47.754;9.566;2022-08-14T13:56:46;28.30;57.70
19970;DHT22;10146;47.754;9.566;2022-08-14T13:59:12;28.60;57.30
19970;DHT22;10146;47.754;9.566;2022-08-14T14:01:38;28.80;56.20
19970;DHT22;10146;47.754;9.566;2022-08-14T14:04:06;29.00;56.60
19970;DHT22;10146;47.754;9.566;2022-08-14T14:06:32;29.00;55.80
19970;DHT22;10146;47.754;9.566;2022-08-14T14:08:58;28.90;56.00
19970;DHT22;10146;47.754;9.566;2022-08-14T14:11:25;28.90;56.20
19970;DHT22;10146;47.754;9.566;2022-08-14T14:13:53;28.70;56.50
19970;DHT22;10146;47.754;9.566;2022-08-14T14:16:22;28.80;57.80
19970;DHT22;10146;47.754;9.566;2022-08-14T14:18:53;28.80;59.20
19970;DHT22;10146;47.754;9.566;2022-08-14T14:21:22;28.80;57.40
19970;DHT22;10146;47.754;9.566;2022-08-14T14:23:49;28.80;56.30
19970;DHT22;10146;47.754;9.566;2022-08-14T14:26:18;28.70;55.30
19970;DHT22;10146;47.754;9.566;2022-08-14T14:28:50;28.50;56.20
19970;DHT22;10146;47.754;9.566;2022-08-14T14:31:35;28.50;56.60
19970;DHT22;10146;47.754;9.566;2022-08-14T14:34:03;28.40;57.50
19970;DHT22;10146;47.754;9.566;2022-08-14T14:36:30;28.40;57.10
19970;DHT22;10146;47.754;9.566;2022-08-14T14:39:02;28.40;57.30
19970;DHT22;10146;47.754;9.566;2022-08-14T14:41:36;28.40;55.70
19970;DHT22;10146;47.754;9.566;2022-08-14T14:44:04;28.40;55.80
19970;DHT22;10146;47.754;9.566;2022-08-14T14:46:37;28.40;56.00
19970;DHT22;10146;47.754;9.566;2022-08-14T14:49:06;28.40;56.30
19970;DHT22;10146;47.754;9.566;2022-08-14T14:51:38;28.30;56.40
19970;DHT22;10146;47.754;9.566;2022-08-14T14:54:06;28.20;57.20
19970;DHT22;10146;47.754;9.566;2022-08-14T14:56:33;28.10;55.90
19970;DHT22;10146;47.754;9.566;2022-08-14T14:58:59;28.10;56.80
19970;DHT22;10146;47.754;9.566;2022-08-14T15:01:25;28.10;56.50
19970;DHT22;10146;47.754;9.566;2022-08-14T15:03:51;28.10;57.00
19970;DHT22;10146;47.754;9.566;2022-08-14T15:06:20;28.20;57.20
19970;DHT22;10146;47.754;9.566;2022-08-14T15:08:47;28.10;57.40
19970;DHT22;10146;47.754;9.566;2022-08-14T15:11:13;28.00;56.90
19970;DHT22;10146;47.754;9.566;2022-08-14T15:13:39;28.00;57.40
19970;DHT22;10146;47.754;9.566;2022-08-14T15:16:06;28.00;58.40
19970;DHT22;10146;47.754;9.566;2022-08-14T15:18:34;27.90;58.10
19970;DHT22;10146;47.754;9.566;2022-08-14T15:20:59;27.90;58.00
19970;DHT22;10146;47.754;9.566;2022-08-14T15:23:31;27.90;57.00
19970;DHT22;10146;47.754;9.566;2022-08-14T15:25:57;27.90;57.60
19970;DHT22;10146;47.754;9.566;2022-08-14T15:28:24;27.80;58.00
19970;DHT22;10146;47.754;9.566;2022-08-14T15:30:51;27.70;58.50
19970;DHT22;10146;47.754;9.566;2022-08-14T15:33:17;27.70;58.60
19970;DHT22;10146;47.754;9.566;2022-08-14T15:36:04;27.80;58.90
19970;DHT22;10146;47.754;9.566;2022-08-14T15:38:30;27.90;58.70
19970;DHT22;10146;47.754;9.566;2022-08-14T15:40:57;28.30;58.50
19970;DHT22;10146;47.754;9.566;2022-08-14T15:43:27;28.60;57.70
19970;DHT22;10146;47.754;9.566;2022-08-14T15:45:54;28.80;58.00
19970;DHT22;10146;47.754;9.566;2022-08-14T15:48:21;29.10;57.70
19970;DHT22;10146;47.754;9.566;2022-08-14T15:50:46;29.50;56.90
19970;DHT22;10146;47.754;9.566;2022-08-14T15:53:13;30.00;56.00
19970;DHT22;10146;47.754;9.566;2022-08-14T15:55:38;30.40;56.50
19970;DHT22;10146;47.754;9.566;2022-08-14T15:58:05;30.70;55.70